sensor_id;sensor_type;location;lat;lon;timestamp;P1;durP1;ratioP1;P2;durP2;ratioP2
54813;SDS011;40714;51.378;-2.348;2022-09-23T00:01:31;2.85;;;2.47;;
54813;SDS011;40714;51.378;-2.348;2022-09-23T00:03:58;3.78;;;2.70;;
54813;SDS011;40714;51.378;-2.348;2022-09-23T00:06:24;4.60;;;2.92;;
54813;SDS011;40714;51.378;-2.348;2022-09-23T00:08:52;3.55;;;2.75;;
54813;SDS011;40714;51.378;-2.348;2022-09-23T00:11:19;6.78;;;3.03;;
54813;SDS011;40714;51.378;-2.348;2022-09-23T00:13:46;4.45;;;2.78;;
54813;SDS011;40714;51.378;-2.348;2022-09-23T00:16:14;4.35;;;2.60;;
54813;SDS011;40714;51.378;-2.348;2022-09-23T00:18:40;4.10;;;2.70;;
54813;SDS011;40714;51.378;-2.348;2022-09-23T00:21:07;3.97;;;2.83;;
54813;SDS011;40714;51.378;-2.348;2022-09-23T00:23:34;3.65;;;2.80;;
54813;SDS011;40714;51.378;-2.348;2022-09-23T00:26:01;2.85;;;2.38;;
54813;SDS011;40714;51.378;-2.348;2022-09-23T00:28:28;3.20;;;2.50;;
54813;SDS011;40714;51.378;-2.348;2022-09-23T00:30:54;3.97;;;2.60;;
54813;SDS011;40714;51.378;-2.348;2022-09-23T00:33:21;2.65;;;2.40;;
54813;SDS011;40714;51.378;-2.348;2022-09-23T00:35:47;2.50;;;2.30;;
54813;SDS011;40714;51.378;-2.348;2022-09-23T00:38:13;3.40;;;2.10;;
54813;SDS011;40714;51.378;-2.348;2022-09-23T00:40:45;3.03;;;2.22;;
54813;SDS011;40714;51.378;-2.348;2022-09-23T00:43:12;3.35;;;2.70;;
54813;SDS011;40714;51.378;-2.348;2022-09-23T00:45:42;3.25;;;2.70;;
54813;SDS011;40714;51.378;-2.348;2022-09-23T00:48:12;3.10;;;2.80;;
54813;SDS011;40714;51.378;-2.348;2022-09-23T00:50:39;2.60;;;2.20;;
54813;SDS011;40714;51.378;-2.348;2022-09-23T00:53:07;3.20;;;2.40;;
54813;SDS011;40714;51.378;-2.348;2022-09-23T00:58:05;2.83;;;2.40;;
54813;SDS011;40714;51.378;-2.348;2022-09-23T01:00:32;3.80;;;2.63;;
54813;SDS011;40714;51.378;-2.348;2022-09-23T01:02:59;3.17;;;2.30;;
54813;SDS011;40714;51.378;-2.348;2022-09-23T01:05:25;2.33;;;2.13;;
54813;SDS011;40714;51.378;-2.348;2022-09-23T01:07:52;3.90;;;2.67;;
54813;SDS011;40714;51.378;-2.348;2022-09-23T01:10:18;3.08;;;2.50;;
54813;SDS011;40714;51.378;-2.348;2022-09-23T01:15:22;4.18;;;2.58;;
54813;SDS011;40714;51.378;-2.348;2022-09-23T01:20:27;4.60;;;2.85;;
54813;SDS011;40714;51.378;-2.348;2022-09-23T01:30:46;4.05;;;3.00;;
54813;SDS011;40714;51.378;-2.348;2022-09-23T01:36:03;3.17;;;2.30;;
54813;SDS011;40714;51.378;-2.348;2022-09-23T01:38:36;3.53;;;2.47;;
54813;SDS011;40714;51.378;-2.348;2022-09-23T01:46:23;4.78;;;2.95;;
54813;SDS011;40714;51.378;-2.348;2022-09-23T01:49:13;3.63;;;2.70;;
54813;SDS011;40714;51.378;-2.348;2022-09-23T01:56:46;4.35;;;3.05;;
54813;SDS011;40714;51.378;-2.348;2022-09-23T01:59:17;5.40;;;3.35;;
54813;SDS011;40714;51.378;-2.348;2022-09-23T02:04:45;4.40;;;3.70;;
54813;SDS011;40714;51.378;-2.348;2022-09-23T02:09:41;3.75;;;2.83;;
54813;SDS011;40714;51.378;-2.348;2022-09-23T02:12:09;4.47;;;3.35;;
54813;SDS011;40714;51.378;-2.348;2022-09-23T02:17:05;4.10;;;3.08;;
54813;SDS011;40714;51.378;-2.348;2022-09-23T02:19:45;3.45;;;2.65;;
54813;SDS011;40714;51.378;-2.348;2022-09-23T02:24:38;3.40;;;2.65;;
54813;SDS011;40714;51.378;-2.348;2022-09-23T02:27:12;5.47;;;3.47;;
54813;SDS011;40714;51.378;-2.348;2022-09-23T02:29:53;7.38;;;3.80;;
54813;SDS011;40714;51.378;-2.348;2022-09-23T02:32:29;4.07;;;3.38;;
54813;SDS011;40714;51.378;-2.348;2022-09-23T02:35:04;5.45;;;4.03;;
54813;SDS011;40714;51.378;-2.348;2022-09-23T02:37:55;7.07;;;3.78;;
54813;SDS011;40714;51.378;-2.348;2022-09-23T02:40:24;5.57;;;3.33;;
54813;SDS011;40714;51.378;-2.348;2022-09-23T02:45:18;4.65;;;3.83;;
54813;SDS011;40714;51.378;-2.348;2022-09-23T02:47:48;6.75;;;4.07;;
54813;SDS011;40714;51.378;-2.348;2022-09-23T02:50:17;5.95;;;4.40;;
54813;SDS011;40714;51.378;-2.348;2022-09-23T02:52:44;6.65;;;4.00;;
54813;SDS011;40714;51.378;-2.348;2022-09-23T02:55:10;4.45;;;3.42;;
54813;SDS011;40714;51.378;-2.348;2022-09-23T02:57:37;4.43;;;3.35;;
54813;SDS011;40714;51.378;-2.348;2022-09-23T03:00:03;4.55;;;3.78;;
54813;SDS011;40714;51.378;-2.348;2022-09-23T03:02:34;7.70;;;4.30;;
54813;SDS011;40714;51.378;-2.348;2022-09-23T03:23:03;5.55;;;4.10;;
54813;SDS011;40714;51.378;-2.348;2022-09-23T03:25:31;6.65;;;4.28;;
54813;SDS011;40714;51.378;-2.348;2022-09-23T03:27:59;6.80;;;3.85;;
54813;SDS011;40714;51.378;-2.348;2022-09-23T03:30:26;5.50;;;3.72;;
54813;SDS011;40714;51.378;-2.348;2022-09-23T03:32:53;6.72;;;4.15;;
54813;SDS011;40714;51.378;-2.348;2022-09-23T03:35:19;6.18;;;4.22;;
54813;SDS011;40714;51.378;-2.348;2022-09-23T03:37:52;7.10;;;4.45;;
54813;SDS011;40714;51.378;-2.348;2022-09-23T03:40:21;9.20;;;5.47;;
54813;SDS011;40714;51.378;-2.348;2022-09-23T03:42:48;7.05;;;4.97;;
54813;SDS011;40714;51.378;-2.348;2022-09-23T03:45:16;7.07;;;4.70;;
54813;SDS011;40714;51.378;-2.348;2022-09-23T03:47:43;7.55;;;4.60;;
54813;SDS011;40714;51.378;-2.348;2022-09-23T03:50:10;7.68;;;4.82;;
54813;SDS011;40714;51.378;-2.348;2022-09-23T03:52:41;7.63;;;5.13;;
54813;SDS011;40714;51.378;-2.348;2022-09-23T03:55:07;7.40;;;5.22;;
54813;SDS011;40714;51.378;-2.348;2022-09-23T03:57:33;8.07;;;5.53;;
54813;SDS011;40714;51.378;-2.348;2022-09-23T03:59:59;7.90;;;5.50;;
54813;SDS011;40714;51.378;-2.348;2022-09-23T04:02:25;8.35;;;5.78;;
54813;SDS011;40714;51.378;-2.348;2022-09-23T04:04:51;7.93;;;5.32;;
54813;SDS011;40714;51.378;-2.348;2022-09-23T04:07:18;6.78;;;4.40;;
54813;SDS011;40714;51.378;-2.348;2022-09-23T04:09:44;5.30;;;3.88;;
54813;SDS011;40714;51.378;-2.348;2022-09-23T04:12:12;6.88;;;4.00;;
54813;SDS011;40714;51.378;-2.348;2022-09-23T04:14:39;5.18;;;3.70;;
54813;SDS011;40714;51.378;-2.348;2022-09-23T04:17:05;6.30;;;3.60;;
54813;SDS011;40714;51.378;-2.348;2022-09-23T04:19:31;6.50;;;3.60;;
54813;SDS011;40714;51.378;-2.348;2022-09-23T04:21:57;6.18;;;3.60;;
54813;SDS011;40714;51.378;-2.348;2022-09-23T04:24:23;4.82;;;3.60;;
54813;SDS011;40714;51.378;-2.348;2022-09-23T04:26:50;4.95;;;3.65;;
54813;SDS011;40714;51.378;-2.348;2022-09-23T04:29:16;4.95;;;3.67;;
54813;SDS011;40714;51.378;-2.348;2022-09-23T04:31:43;5.18;;;3.15;;
54813;SDS011;40714;51.378;-2.348;2022-09-23T04:34:08;4.65;;;3.33;;
54813;SDS011;40714;51.378;-2.348;2022-09-23T04:36:34;4.47;;;3.22;;
54813;SDS011;40714;51.378;-2.348;2022-09-23T04:39:01;5.50;;;3.33;;
54813;SDS011;40714;51.378;-2.348;2022-09-23T04:41:27;5.78;;;3.60;;
54813;SDS011;40714;51.378;-2.348;2022-09-23T04:43:53;5.80;;;3.85;;
54813;SDS011;40714;51.378;-2.348;2022-09-23T04:46:21;5.30;;;3.42;;
54813;SDS011;40714;51.378;-2.348;2022-09-23T04:48:47;4.88;;;3.40;;
54813;SDS011;40714;51.378;-2.348;2022-09-23T04:51:15;4.93;;;3.70;;
54813;SDS011;40714;51.378;-2.348;2022-09-23T04:53:42;5.10;;;3.75;;
54813;SDS011;40714;51.378;-2.348;2022-09-23T04:56:18;6.38;;;3.83;;
54813;SDS011;40714;51.378;-2.348;2022-09-23T04:58:44;7.40;;;3.63;;
54813;SDS011;40714;51.378;-2.348;2022-09-23T05:01:11;6.10;;;3.50;;
54813;SDS011;40714;51.378;-2.348;2022-09-23T05:03:38;7.25;;;3.70;;
54813;SDS011;40714;51.378;-2.348;2022-09-23T05:06:04;4.82;;;3.35;;
54813;SDS011;40714;51.378;-2.348;2022-09-23T05:08:31;5.53;;;3.05;;
54813;SDS011;40714;51.378;-2.348;2022-09-23T05:10:57;5.75;;;3.30;;
54813;SDS011;40714;51.378;-2.348;2022-09-23T05:13:24;5.25;;;3.38;;
54813;SDS011;40714;51.378;-2.348;2022-09-23T05:15:55;6.47;;;3.83;;
54813;SDS011;40714;51.378;-2.348;2022-09-23T05:18:22;4.68;;;3.20;;
54813;SDS011;40714;51.378;-2.348;2022-09-23T05:20:54;5.72;;;3.47;;
54813;SDS011;40714;51.378;-2.348;2022-09-23T05:23:20;6.03;;;4.03;;
54813;SDS011;40714;51.378;-2.348;2022-09-23T05:25:46;5.40;;;3.50;;
54813;SDS011;40714;51.378;-2.348;2022-09-23T05:28:13;5.47;;;3.60;;
54813;SDS011;40714;51.378;-2.348;2022-09-23T05:33:08;8.05;;;3.65;;
54813;SDS011;40714;51.378;-2.348;2022-09-23T05:35:35;7.50;;;4.05;;
54813;SDS011;40714;51.378;-2.348;2022-09-23T05:38:01;5.30;;;2.90;;
54813;SDS011;40714;51.378;-2.348;2022-09-23T05:40:27;7.85;;;3.60;;
54813;SDS011;40714;51.378;-2.348;2022-09-23T05:42:53;5.90;;;3.08;;
54813;SDS011;40714;51.378;-2.348;2022-09-23T05:45:19;5.65;;;3.38;;
54813;SDS011;40714;51.378;-2.348;2022-09-23T05:47:45;7.32;;;3.50;;
54813;SDS011;40714;51.378;-2.348;2022-09-23T05:50:11;6.13;;;3.78;;
54813;SDS011;40714;51.378;-2.348;2022-09-23T05:52:37;5.75;;;3.53;;
54813;SDS011;40714;51.378;-2.348;2022-09-23T05:55:03;7.90;;;3.90;;
54813;SDS011;40714;51.378;-2.348;2022-09-23T05:57:29;8.63;;;4.07;;
54813;SDS011;40714;51.378;-2.348;2022-09-23T05:59:55;8.88;;;4.25;;
54813;SDS011;40714;51.378;-2.348;2022-09-23T06:02:21;9.55;;;4.35;;
54813;SDS011;40714;51.378;-2.348;2022-09-23T06:04:47;6.57;;;4.00;;
54813;SDS011;40714;51.378;-2.348;2022-09-23T06:07:13;6.20;;;4.00;;
54813;SDS011;40714;51.378;-2.348;2022-09-23T06:09:39;8.93;;;4.68;;
54813;SDS011;40714;51.378;-2.348;2022-09-23T06:12:06;9.93;;;5.43;;
54813;SDS011;40714;51.378;-2.348;2022-09-23T06:14:32;11.02;;;5.38;;
54813;SDS011;40714;51.378;-2.348;2022-09-23T06:16:58;10.68;;;5.25;;
54813;SDS011;40714;51.378;-2.348;2022-09-23T06:19:24;15.10;;;6.63;;
54813;SDS011;40714;51.378;-2.348;2022-09-23T06:21:50;13.32;;;6.50;;
54813;SDS011;40714;51.378;-2.348;2022-09-23T06:24:16;13.38;;;6.68;;
54813;SDS011;40714;51.378;-2.348;2022-09-23T06:26:42;13.88;;;6.80;;
54813;SDS011;40714;51.378;-2.348;2022-09-23T06:29:09;13.55;;;7.97;;
54813;SDS011;40714;51.378;-2.348;2022-09-23T06:31:36;14.65;;;7.00;;
54813;SDS011;40714;51.378;-2.348;2022-09-23T06:34:04;16.02;;;7.53;;
54813;SDS011;40714;51.378;-2.348;2022-09-23T06:36:30;14.98;;;7.22;;
54813;SDS011;40714;51.378;-2.348;2022-09-23T06:38:56;14.02;;;5.75;;
54813;SDS011;40714;51.378;-2.348;2022-09-23T06:41:22;12.52;;;5.80;;
54813;SDS011;40714;51.378;-2.348;2022-09-23T06:43:48;9.85;;;4.68;;
54813;SDS011;40714;51.378;-2.348;2022-09-23T06:46:15;12.40;;;6.20;;
54813;SDS011;40714;51.378;-2.348;2022-09-23T06:48:41;10.23;;;4.95;;
54813;SDS011;40714;51.378;-2.348;2022-09-23T06:51:08;17.75;;;5.75;;
54813;SDS011;40714;51.378;-2.348;2022-09-23T06:53:36;11.82;;;5.32;;
54813;SDS011;40714;51.378;-2.348;2022-09-23T06:56:06;15.10;;;5.65;;
54813;SDS011;40714;51.378;-2.348;2022-09-23T06:58:33;15.05;;;5.95;;
54813;SDS011;40714;51.378;-2.348;2022-09-23T07:01:09;13.20;;;5.57;;
54813;SDS011;40714;51.378;-2.348;2022-09-23T07:03:35;14.23;;;5.78;;
54813;SDS011;40714;51.378;-2.348;2022-09-23T07:06:02;11.13;;;5.32;;
54813;SDS011;40714;51.378;-2.348;2022-09-23T07:08:28;11.95;;;4.72;;
54813;SDS011;40714;51.378;-2.348;2022-09-23T07:10:59;12.73;;;5.28;;
54813;SDS011;40714;51.378;-2.348;2022-09-23T07:13:25;13.82;;;5.28;;
54813;SDS011;40714;51.378;-2.348;2022-09-23T07:15:52;11.95;;;4.95;;
54813;SDS011;40714;51.378;-2.348;2022-09-23T07:18:18;10.05;;;4.72;;
54813;SDS011;40714;51.378;-2.348;2022-09-23T07:20:45;14.10;;;5.13;;
54813;SDS011;40714;51.378;-2.348;2022-09-23T07:23:12;12.40;;;4.65;;
54813;SDS011;40714;51.378;-2.348;2022-09-23T07:25:38;9.88;;;4.55;;
54813;SDS011;40714;51.378;-2.348;2022-09-23T07:28:04;9.18;;;4.20;;
54813;SDS011;40714;51.378;-2.348;2022-09-23T07:30:31;12.93;;;5.45;;
54813;SDS011;40714;51.378;-2.348;2022-09-23T07:32:57;9.65;;;4.95;;
54813;SDS011;40714;51.378;-2.348;2022-09-23T07:35:23;8.40;;;4.45;;
54813;SDS011;40714;51.378;-2.348;2022-09-23T07:37:52;8.55;;;4.60;;
54813;SDS011;40714;51.378;-2.348;2022-09-23T07:40:18;10.48;;;4.00;;
54813;SDS011;40714;51.378;-2.348;2022-09-23T07:42:44;10.60;;;4.20;;
54813;SDS011;40714;51.378;-2.348;2022-09-23T07:45:10;7.65;;;3.38;;
54813;SDS011;40714;51.378;-2.348;2022-09-23T07:47:36;9.30;;;4.20;;
54813;SDS011;40714;51.378;-2.348;2022-09-23T07:50:06;6.95;;;3.22;;
54813;SDS011;40714;51.378;-2.348;2022-09-23T07:52:34;8.70;;;3.55;;
54813;SDS011;40714;51.378;-2.348;2022-09-23T07:55:01;8.77;;;3.72;;
54813;SDS011;40714;51.378;-2.348;2022-09-23T07:57:28;6.30;;;3.00;;
54813;SDS011;40714;51.378;-2.348;2022-09-23T07:59:53;8.82;;;3.83;;
54813;SDS011;40714;51.378;-2.348;2022-09-23T08:02:19;8.25;;;3.83;;
54813;SDS011;40714;51.378;-2.348;2022-09-23T08:04:45;8.05;;;3.53;;
54813;SDS011;40714;51.378;-2.348;2022-09-23T08:07:13;8.40;;;4.00;;
54813;SDS011;40714;51.378;-2.348;2022-09-23T08:09:40;6.72;;;3.75;;
54813;SDS011;40714;51.378;-2.348;2022-09-23T08:12:07;8.73;;;4.03;;
54813;SDS011;40714;51.378;-2.348;2022-09-23T08:14:33;8.23;;;4.05;;
54813;SDS011;40714;51.378;-2.348;2022-09-23T08:17:00;7.43;;;3.72;;
54813;SDS011;40714;51.378;-2.348;2022-09-23T08:19:26;8.30;;;4.30;;
54813;SDS011;40714;51.378;-2.348;2022-09-23T08:21:52;7.38;;;3.45;;
54813;SDS011;40714;51.378;-2.348;2022-09-23T08:24:19;8.48;;;4.00;;
54813;SDS011;40714;51.378;-2.348;2022-09-23T08:26:46;6.72;;;2.75;;
54813;SDS011;40714;51.378;-2.348;2022-09-23T08:29:13;8.45;;;4.45;;
54813;SDS011;40714;51.378;-2.348;2022-09-23T08:31:39;5.20;;;2.90;;
54813;SDS011;40714;51.378;-2.348;2022-09-23T08:34:05;7.00;;;3.33;;
54813;SDS011;40714;51.378;-2.348;2022-09-23T08:36:32;8.00;;;2.60;;
54813;SDS011;40714;51.378;-2.348;2022-09-23T08:38:58;4.68;;;2.00;;
54813;SDS011;40714;51.378;-2.348;2022-09-23T08:43:51;7.05;;;2.80;;
54813;SDS011;40714;51.378;-2.348;2022-09-23T08:46:20;5.95;;;2.22;;
54813;SDS011;40714;51.378;-2.348;2022-09-23T08:48:46;5.70;;;2.77;;
54813;SDS011;40714;51.378;-2.348;2022-09-23T08:51:14;3.90;;;2.40;;
54813;SDS011;40714;51.378;-2.348;2022-09-23T08:53:41;5.53;;;2.55;;
54813;SDS011;40714;51.378;-2.348;2022-09-23T08:56:16;6.03;;;2.65;;
54813;SDS011;40714;51.378;-2.348;2022-09-23T09:03:50;6.32;;;2.90;;
54813;SDS011;40714;51.378;-2.348;2022-09-23T09:06:19;4.60;;;3.10;;
54813;SDS011;40714;51.378;-2.348;2022-09-23T09:08:50;7.75;;;3.47;;
54813;SDS011;40714;51.378;-2.348;2022-09-23T09:11:17;6.03;;;4.03;;
54813;SDS011;40714;51.378;-2.348;2022-09-23T09:13:47;12.95;;;5.07;;
54813;SDS011;40714;51.378;-2.348;2022-09-23T09:16:59;9.88;;;4.72;;
54813;SDS011;40714;51.378;-2.348;2022-09-23T09:19:18;11.07;;;5.45;;
54813;SDS011;40714;51.378;-2.348;2022-09-23T09:21:45;10.25;;;5.28;;
54813;SDS011;40714;51.378;-2.348;2022-09-23T09:24:17;10.17;;;5.23;;
54813;SDS011;40714;51.378;-2.348;2022-09-23T09:26:46;9.05;;;4.80;;
54813;SDS011;40714;51.378;-2.348;2022-09-23T09:29:23;7.35;;;4.85;;
54813;SDS011;40714;51.378;-2.348;2022-09-23T09:31:50;8.18;;;4.47;;
54813;SDS011;40714;51.378;-2.348;2022-09-23T09:39:35;10.32;;;5.30;;
54813;SDS011;40714;51.378;-2.348;2022-09-23T09:42:02;9.13;;;4.82;;
54813;SDS011;40714;51.378;-2.348;2022-09-23T09:44:37;9.65;;;5.25;;
54813;SDS011;40714;51.378;-2.348;2022-09-23T09:47:07;6.38;;;4.68;;
54813;SDS011;40714;51.378;-2.348;2022-09-23T09:49:55;10.88;;;5.80;;
54813;SDS011;40714;51.378;-2.348;2022-09-23T09:52:25;9.18;;;5.53;;
54813;SDS011;40714;51.378;-2.348;2022-09-23T09:54:54;11.45;;;5.60;;
54813;SDS011;40714;51.378;-2.348;2022-09-23T09:59:54;7.68;;;4.68;;
54813;SDS011;40714;51.378;-2.348;2022-09-23T10:02:23;7.47;;;4.75;;
54813;SDS011;40714;51.378;-2.348;2022-09-23T10:04:56;7.88;;;5.38;;
54813;SDS011;40714;51.378;-2.348;2022-09-23T10:07:25;8.25;;;4.40;;
54813;SDS011;40714;51.378;-2.348;2022-09-23T10:09:51;5.35;;;4.60;;
54813;SDS011;40714;51.378;-2.348;2022-09-23T10:12:18;6.15;;;4.18;;
54813;SDS011;40714;51.378;-2.348;2022-09-23T10:14:45;7.35;;;4.53;;
54813;SDS011;40714;51.378;-2.348;2022-09-23T10:17:31;5.72;;;5.07;;
54813;SDS011;40714;51.378;-2.348;2022-09-23T10:19:58;7.53;;;4.93;;
54813;SDS011;40714;51.378;-2.348;2022-09-23T10:22:32;6.82;;;5.05;;
54813;SDS011;40714;51.378;-2.348;2022-09-23T10:25:00;9.02;;;5.00;;
54813;SDS011;40714;51.378;-2.348;2022-09-23T10:27:31;7.25;;;4.78;;
54813;SDS011;40714;51.378;-2.348;2022-09-23T10:29:59;7.50;;;5.22;;
54813;SDS011;40714;51.378;-2.348;2022-09-23T10:32:27;6.78;;;4.22;;
54813;SDS011;40714;51.378;-2.348;2022-09-23T10:34:55;7.43;;;5.30;;
54813;SDS011;40714;51.378;-2.348;2022-09-23T10:38:06;6.80;;;5.00;;
54813;SDS011;40714;51.378;-2.348;2022-09-23T10:40:13;5.10;;;4.60;;
54813;SDS011;40714;51.378;-2.348;2022-09-23T10:45:47;6.70;;;3.67;;
54813;SDS011;40714;51.378;-2.348;2022-09-23T11:07:30;2.53;;;2.22;;
54813;SDS011;40714;51.378;-2.348;2022-09-23T11:10:46;2.55;;;2.33;;
54813;SDS011;40714;51.378;-2.348;2022-09-23T11:13:02;2.60;;;2.40;;
54813;SDS011;40714;51.378;-2.348;2022-09-23T11:18:21;2.85;;;2.10;;
54813;SDS011;40714;51.378;-2.348;2022-09-23T11:20:58;2.97;;;2.03;;
54813;SDS011;40714;51.378;-2.348;2022-09-23T11:26:18;2.47;;;2.25;;
54813;SDS011;40714;51.378;-2.348;2022-09-23T11:36:44;3.22;;;1.52;;
54813;SDS011;40714;51.378;-2.348;2022-09-23T11:41:37;2.75;;;1.73;;
54813;SDS011;40714;51.378;-2.348;2022-09-23T11:44:14;1.73;;;1.58;;
54813;SDS011;40714;51.378;-2.348;2022-09-23T11:46:44;2.70;;;1.50;;
54813;SDS011;40714;51.378;-2.348;2022-09-23T11:54:19;2.25;;;1.67;;
54813;SDS011;40714;51.378;-2.348;2022-09-23T11:56:59;2.85;;;1.40;;
54813;SDS011;40714;51.378;-2.348;2022-09-23T11:59:40;1.40;;;1.20;;
54813;SDS011;40714;51.378;-2.348;2022-09-23T12:02:16;0.90;;;0.90;;
54813;SDS011;40714;51.378;-2.348;2022-09-23T12:04:45;1.98;;;1.30;;
54813;SDS011;40714;51.378;-2.348;2022-09-23T12:15:01;1.23;;;0.70;;
54813;SDS011;40714;51.378;-2.348;2022-09-23T12:20:24;0.73;;;0.57;;
54813;SDS011;40714;51.378;-2.348;2022-09-23T12:27:58;1.50;;;0.68;;
54813;SDS011;40714;51.378;-2.348;2022-09-23T12:30:27;1.48;;;1.00;;
54813;SDS011;40714;51.378;-2.348;2022-09-23T12:33:07;1.27;;;0.88;;
54813;SDS011;40714;51.378;-2.348;2022-09-23T12:35:37;1.23;;;1.00;;
54813;SDS011;40714;51.378;-2.348;2022-09-23T12:38:12;1.33;;;1.15;;
54813;SDS011;40714;51.378;-2.348;2022-09-23T12:40:39;1.75;;;1.17;;
54813;SDS011;40714;51.378;-2.348;2022-09-23T12:48:42;2.15;;;1.13;;
54813;SDS011;40714;51.378;-2.348;2022-09-23T12:51:15;2.25;;;1.00;;
54813;SDS011;40714;51.378;-2.348;2022-09-23T12:56:19;1.65;;;0.82;;
54813;SDS011;40714;51.378;-2.348;2022-09-23T13:01:19;0.90;;;0.63;;
54813;SDS011;40714;51.378;-2.348;2022-09-23T13:03:47;1.92;;;0.75;;
54813;SDS011;40714;51.378;-2.348;2022-09-23T13:06:40;3.63;;;1.00;;
54813;SDS011;40714;51.378;-2.348;2022-09-23T13:09:25;2.85;;;0.85;;
54813;SDS011;40714;51.378;-2.348;2022-09-23T13:11:54;5.05;;;0.80;;
54813;SDS011;40714;51.378;-2.348;2022-09-23T13:14:22;0.95;;;0.57;;
54813;SDS011;40714;51.378;-2.348;2022-09-23T13:16:49;1.65;;;0.57;;
54813;SDS011;40714;51.378;-2.348;2022-09-23T13:26:46;1.58;;;0.40;;
54813;SDS011;40714;51.378;-2.348;2022-09-23T13:31:50;2.00;;;0.70;;
54813;SDS011;40714;51.378;-2.348;2022-09-23T13:34:20;1.10;;;0.60;;
54813;SDS011;40714;51.378;-2.348;2022-09-23T13:36:47;1.67;;;0.75;;
54813;SDS011;40714;51.378;-2.348;2022-09-23T13:41:45;1.48;;;0.52;;
54813;SDS011;40714;51.378;-2.348;2022-09-23T13:44:13;0.93;;;0.60;;
54813;SDS011;40714;51.378;-2.348;2022-09-23T13:46:43;3.22;;;0.80;;
54813;SDS011;40714;51.378;-2.348;2022-09-23T13:49:21;1.42;;;0.70;;
54813;SDS011;40714;51.378;-2.348;2022-09-23T13:51:49;2.13;;;0.70;;
54813;SDS011;40714;51.378;-2.348;2022-09-23T13:54:31;1.02;;;0.50;;
54813;SDS011;40714;51.378;-2.348;2022-09-23T13:56:59;2.42;;;0.80;;
54813;SDS011;40714;51.378;-2.348;2022-09-23T13:59:29;1.38;;;0.68;;
54813;SDS011;40714;51.378;-2.348;2022-09-23T14:04:28;1.73;;;0.77;;
54813;SDS011;40714;51.378;-2.348;2022-09-23T14:06:54;2.10;;;0.80;;
54813;SDS011;40714;51.378;-2.348;2022-09-23T14:09:22;1.05;;;0.70;;
54813;SDS011;40714;51.378;-2.348;2022-09-23T14:11:49;2.60;;;0.90;;
54813;SDS011;40714;51.378;-2.348;2022-09-23T14:14:16;3.22;;;0.90;;
54813;SDS011;40714;51.378;-2.348;2022-09-23T14:16:43;2.65;;;0.98;;
54813;SDS011;40714;51.378;-2.348;2022-09-23T14:19:12;0.73;;;0.73;;
54813;SDS011;40714;51.378;-2.348;2022-09-23T14:21:40;1.40;;;0.80;;
54813;SDS011;40714;51.378;-2.348;2022-09-23T14:29:01;2.35;;;0.60;;
54813;SDS011;40714;51.378;-2.348;2022-09-23T14:31:28;0.40;;;0.40;;
54813;SDS011;40714;51.378;-2.348;2022-09-23T14:33:54;1.63;;;0.70;;
54813;SDS011;40714;51.378;-2.348;2022-09-23T14:36:20;1.40;;;0.68;;
54813;SDS011;40714;51.378;-2.348;2022-09-23T14:39:09;1.17;;;0.70;;
54813;SDS011;40714;51.378;-2.348;2022-09-23T14:41:36;2.38;;;0.95;;
54813;SDS011;40714;51.378;-2.348;2022-09-23T14:44:03;0.40;;;0.40;;
54813;SDS011;40714;51.378;-2.348;2022-09-23T14:46:30;3.33;;;0.70;;
54813;SDS011;40714;51.378;-2.348;2022-09-23T14:51:30;2.92;;;0.60;;
54813;SDS011;40714;51.378;-2.348;2022-09-23T14:56:43;1.08;;;0.98;;
54813;SDS011;40714;51.378;-2.348;2022-09-23T14:59:21;0.57;;;0.50;;
54813;SDS011;40714;51.378;-2.348;2022-09-23T15:01:48;0.70;;;0.70;;
54813;SDS011;40714;51.378;-2.348;2022-09-23T15:11:43;0.60;;;0.60;;
54813;SDS011;40714;51.378;-2.348;2022-09-23T15:14:10;0.70;;;0.70;;
54813;SDS011;40714;51.378;-2.348;2022-09-23T15:16:36;2.38;;;0.90;;
54813;SDS011;40714;51.378;-2.348;2022-09-23T15:19:03;0.68;;;0.65;;
54813;SDS011;40714;51.378;-2.348;2022-09-23T15:21:41;1.67;;;0.80;;
54813;SDS011;40714;51.378;-2.348;2022-09-23T15:26:54;1.50;;;0.90;;
54813;SDS011;40714;51.378;-2.348;2022-09-23T15:29:22;1.33;;;1.10;;
54813;SDS011;40714;51.378;-2.348;2022-09-23T15:31:50;2.10;;;1.07;;
54813;SDS011;40714;51.378;-2.348;2022-09-23T15:34:16;1.35;;;0.90;;
54813;SDS011;40714;51.378;-2.348;2022-09-23T15:36:44;3.63;;;1.27;;
54813;SDS011;40714;51.378;-2.348;2022-09-23T15:39:11;3.10;;;1.20;;
54813;SDS011;40714;51.378;-2.348;2022-09-23T15:41:37;3.72;;;0.98;;
54813;SDS011;40714;51.378;-2.348;2022-09-23T15:44:12;0.82;;;0.82;;
54813;SDS011;40714;51.378;-2.348;2022-09-23T15:46:43;0.88;;;0.88;;
54813;SDS011;40714;51.378;-2.348;2022-09-23T15:49:14;1.10;;;0.93;;
54813;SDS011;40714;51.378;-2.348;2022-09-23T15:51:41;1.17;;;1.08;;
54813;SDS011;40714;51.378;-2.348;2022-09-23T15:54:13;1.27;;;0.90;;
54813;SDS011;40714;51.378;-2.348;2022-09-23T15:56:39;1.35;;;1.00;;
54813;SDS011;40714;51.378;-2.348;2022-09-23T15:59:05;2.30;;;1.00;;
54813;SDS011;40714;51.378;-2.348;2022-09-23T16:01:32;1.70;;;1.00;;
54813;SDS011;40714;51.378;-2.348;2022-09-23T16:03:59;3.53;;;1.58;;
54813;SDS011;40714;51.378;-2.348;2022-09-23T16:06:26;1.45;;;1.17;;
54813;SDS011;40714;51.378;-2.348;2022-09-23T16:08:52;1.52;;;1.42;;
54813;SDS011;40714;51.378;-2.348;2022-09-23T16:11:23;2.75;;;2.53;;
54813;SDS011;40714;51.378;-2.348;2022-09-23T16:13:49;2.28;;;2.08;;
54813;SDS011;40714;51.378;-2.348;2022-09-23T16:16:16;2.00;;;1.80;;
54813;SDS011;40714;51.378;-2.348;2022-09-23T16:18:45;1.80;;;1.65;;
54813;SDS011;40714;51.378;-2.348;2022-09-23T16:21:12;2.45;;;1.75;;
54813;SDS011;40714;51.378;-2.348;2022-09-23T16:23:42;2.83;;;1.90;;
54813;SDS011;40714;51.378;-2.348;2022-09-23T16:26:28;2.88;;;2.08;;
54813;SDS011;40714;51.378;-2.348;2022-09-23T16:28:55;2.17;;;1.95;;
54813;SDS011;40714;51.378;-2.348;2022-09-23T16:31:22;2.05;;;1.88;;
54813;SDS011;40714;51.378;-2.348;2022-09-23T16:33:49;3.15;;;1.83;;
54813;SDS011;40714;51.378;-2.348;2022-09-23T16:36:20;2.25;;;2.05;;
54813;SDS011;40714;51.378;-2.348;2022-09-23T16:38:47;2.22;;;1.80;;
54813;SDS011;40714;51.378;-2.348;2022-09-23T16:41:13;3.60;;;2.03;;
54813;SDS011;40714;51.378;-2.348;2022-09-23T16:43:39;2.33;;;1.88;;
54813;SDS011;40714;51.378;-2.348;2022-09-23T16:46:06;2.75;;;2.13;;
54813;SDS011;40714;51.378;-2.348;2022-09-23T16:48:32;2.75;;;2.28;;
54813;SDS011;40714;51.378;-2.348;2022-09-23T16:51:02;4.18;;;2.28;;
54813;SDS011;40714;51.378;-2.348;2022-09-23T16:53:28;2.50;;;2.25;;
54813;SDS011;40714;51.378;-2.348;2022-09-23T16:55:54;3.40;;;2.70;;
54813;SDS011;40714;51.378;-2.348;2022-09-23T16:58:23;3.40;;;2.20;;
54813;SDS011;40714;51.378;-2.348;2022-09-23T17:00:55;2.50;;;2.30;;
54813;SDS011;40714;51.378;-2.348;2022-09-23T17:03:39;4.07;;;2.50;;
54813;SDS011;40714;51.378;-2.348;2022-09-23T17:06:09;2.85;;;2.58;;
54813;SDS011;40714;51.378;-2.348;2022-09-23T17:08:39;3.97;;;3.00;;
54813;SDS011;40714;51.378;-2.348;2022-09-23T17:11:05;3.35;;;2.85;;
54813;SDS011;40714;51.378;-2.348;2022-09-23T17:13:32;3.17;;;2.30;;
54813;SDS011;40714;51.378;-2.348;2022-09-23T17:15:58;3.15;;;2.40;;
54813;SDS011;40714;51.378;-2.348;2022-09-23T17:18:24;2.97;;;2.47;;
54813;SDS011;40714;51.378;-2.348;2022-09-23T17:21:00;2.65;;;2.45;;
54813;SDS011;40714;51.378;-2.348;2022-09-23T17:23:27;2.75;;;2.55;;
54813;SDS011;40714;51.378;-2.348;2022-09-23T17:25:55;4.13;;;2.70;;
54813;SDS011;40714;51.378;-2.348;2022-09-23T17:28:21;2.75;;;2.50;;
54813;SDS011;40714;51.378;-2.348;2022-09-23T17:30:53;3.22;;;2.80;;
54813;SDS011;40714;51.378;-2.348;2022-09-23T17:33:21;4.55;;;2.67;;
54813;SDS011;40714;51.378;-2.348;2022-09-23T17:35:47;3.75;;;3.28;;
54813;SDS011;40714;51.378;-2.348;2022-09-23T17:38:13;2.92;;;2.72;;
54813;SDS011;40714;51.378;-2.348;2022-09-23T17:40:39;2.80;;;2.60;;
54813;SDS011;40714;51.378;-2.348;2022-09-23T17:43:06;3.65;;;3.13;;
54813;SDS011;40714;51.378;-2.348;2022-09-23T17:45:35;3.83;;;2.72;;